Airways and Terminal Forecast

Significant Meteorological Information

WSPH31 RPLL 191517 
RPHI SIGMET A05 VALID 191520/191920 RPLL-
RPHI MANILA FIR EMBD TS OBS WI N1431 E12340 - N1228 E11913 - N1542 E11754 - N2100 E12226 - N2100 E12455 - N1431 E12340 TOP FL490 STNR NC=

Terminal Aerodrome Forecast

TAF RPLL

191100Z 1912/2018 11006KT 9999 FEW025 BKN100 TX33/2005Z TN26/1921Z TEMPO 1912/1918 23005KT -RA SCT023 OVC090 TEMPO 1918/1924 VRB03KT -SHRA SCT023 BKN100=

TAF RPVM

191100Z 1912/2018 10004KT 9999 FEW020 SCT300 TEMPO 1912/1918 09005KT -SHRA FEW018CB BKN100 TEMPO 1918/1924 09007KT FEW018CB SCT300=

TAF RPLC

191100Z 1912/2018 18006KT 8000 SCT020 BKN100 TX32/2006Z TN24/1921Z TEMPO 1912/1918 25006KT 6000 -TSRA FEW015CB SCT020 OVC100=

TAF RPLB

191100Z 1912/2012 21006KT 9999 SCT020 BKN080 TX31/2006Z TN23/1921Z TEMPO 1912/1918 05010KT 8000 -SHRA SCT018 BKN070=

TAF RPLI

191100Z 1912/2012 22007KT 9999 FEW018 BKN090 TEMPO 1912/1918 18010KT 7000 -TSRA FEW017CB SCT018 OVC090=

TAF RPVP

191100Z 1912/2012 18005KT 9999 FEW019 SCT080 BKN250 TEMPO 1912/1918 27006KT FEW017CB BKN080=

TAF RPVD

191100Z 1912/2012 04006KT 9999 FEW015 SCT070 TEMPO 1912/1918 32005KT FEW014CB SCT070=

TAF RPMR

191100Z 1912/2012 03006KT 9999 FEW018 SCT080 TEMPO 1912/1918 01005KT FEW018 BKN080=

TAF RPMD

191100Z 1912/2012 17006KT 9999 FEW016 SCT090 TEMPO 1912/1918 33008KT FEW015CB SCT016 BKN090=

TAF RPMZ

191100Z 1912/2012 07005KT 9999 FEW017 SCT090 BKN300 TEMPO 1912/1918 26010KT -SHRA SCT017 BKN090=

TAF RPVK

191100Z 1912/2012 07006KT 9999 FEW016 SCT070 BKN240 TEMPO 1912/1918 10008KT -TSRA SCT015CB BKN070 OVC240=

RPLL FORECAST TAKE-OFF CONDITION

TIME

(UTC)

WIND

(dddffKT)

TEMP

(°C)

QNH

(hPa)

TIME

(UTC)

WIND

(dddffKT)

TEMP

(°C)

QNH

(hPa)

1200

11006KT

27.5

1011.0

1600

23005KT

27.0

1011.0

1300

12005KT

27.5

1011.0

1700

VRB03KT

27.0

1011.0

1400

VRB03KT

27.5

1012.0

1800

VRB02KT

26.5

1010.0

1500

VRB03KT

27.0

1012.0

1900

VRB02KT

26.5

1010.0

ISSUED AT NAIA AMSS-WD/PAGASA-DOST FOR 1100UTC 19 MAY 2022

PREPARED BY:              SAIN

CHECKED BY:                 GSS